sensor_id;sensor_type;location;lat;lon;timestamp;P1;durP1;ratioP1;P2;durP2;ratioP2
2388;SDS011;1205;47.984;7.668;2023-11-21T00:01:55;3.43;;;1.20;;
2388;SDS011;1205;47.984;7.668;2023-11-21T00:04:22;4.67;;;1.10;;
2388;SDS011;1205;47.984;7.668;2023-11-21T00:06:47;7.20;;;1.83;;
2388;SDS011;1205;47.984;7.668;2023-11-21T00:09:13;5.80;;;2.30;;
2388;SDS011;1205;47.984;7.668;2023-11-21T00:11:43;5.17;;;1.83;;
2388;SDS011;1205;47.984;7.668;2023-11-21T00:14:09;7.63;;;1.40;;
2388;SDS011;1205;47.984;7.668;2023-11-21T00:16:40;6.50;;;1.63;;
2388;SDS011;1205;47.984;7.668;2023-11-21T00:19:06;6.33;;;2.23;;
2388;SDS011;1205;47.984;7.668;2023-11-21T00:21:31;4.03;;;1.43;;
2388;SDS011;1205;47.984;7.668;2023-11-21T00:23:57;8.13;;;1.70;;
2388;SDS011;1205;47.984;7.668;2023-11-21T00:26:23;5.03;;;1.43;;
2388;SDS011;1205;47.984;7.668;2023-11-21T00:28:49;3.80;;;1.50;;
2388;SDS011;1205;47.984;7.668;2023-11-21T00:31:15;6.40;;;1.60;;
2388;SDS011;1205;47.984;7.668;2023-11-21T00:33:41;4.20;;;1.17;;
2388;SDS011;1205;47.984;7.668;2023-11-21T00:36:07;5.90;;;1.70;;
2388;SDS011;1205;47.984;7.668;2023-11-21T00:38:35;9.33;;;2.73;;
2388;SDS011;1205;47.984;7.668;2023-11-21T00:41:00;3.93;;;1.50;;
2388;SDS011;1205;47.984;7.668;2023-11-21T00:43:26;5.63;;;1.30;;
2388;SDS011;1205;47.984;7.668;2023-11-21T00:45:51;3.43;;;1.00;;
2388;SDS011;1205;47.984;7.668;2023-11-21T00:48:17;7.53;;;1.90;;
2388;SDS011;1205;47.984;7.668;2023-11-21T00:50:43;4.77;;;1.10;;
2388;SDS011;1205;47.984;7.668;2023-11-21T00:53:09;4.83;;;1.10;;
2388;SDS011;1205;47.984;7.668;2023-11-21T00:55:36;7.03;;;1.90;;
2388;SDS011;1205;47.984;7.668;2023-11-21T00:58:02;5.47;;;1.50;;
2388;SDS011;1205;47.984;7.668;2023-11-21T01:00:29;3.80;;;1.33;;
2388;SDS011;1205;47.984;7.668;2023-11-21T01:02:55;6.40;;;1.60;;
2388;SDS011;1205;47.984;7.668;2023-11-21T01:05:20;6.07;;;1.50;;
2388;SDS011;1205;47.984;7.668;2023-11-21T01:07:46;8.70;;;1.67;;
2388;SDS011;1205;47.984;7.668;2023-11-21T01:10:12;3.03;;;1.23;;
2388;SDS011;1205;47.984;7.668;2023-11-21T01:12:37;4.23;;;1.13;;
2388;SDS011;1205;47.984;7.668;2023-11-21T01:15:07;1.20;;;0.90;;
2388;SDS011;1205;47.984;7.668;2023-11-21T01:17:33;7.10;;;1.27;;
2388;SDS011;1205;47.984;7.668;2023-11-21T01:20:02;3.80;;;1.00;;
2388;SDS011;1205;47.984;7.668;2023-11-21T01:22:31;3.87;;;1.20;;
2388;SDS011;1205;47.984;7.668;2023-11-21T01:24:56;9.10;;;1.00;;
2388;SDS011;1205;47.984;7.668;2023-11-21T01:27:22;1.97;;;1.07;;
2388;SDS011;1205;47.984;7.668;2023-11-21T01:29:48;5.63;;;1.17;;
2388;SDS011;1205;47.984;7.668;2023-11-21T01:32:13;1.80;;;0.70;;
2388;SDS011;1205;47.984;7.668;2023-11-21T01:34:39;4.37;;;1.10;;
2388;SDS011;1205;47.984;7.668;2023-11-21T01:37:05;3.23;;;1.23;;
2388;SDS011;1205;47.984;7.668;2023-11-21T01:39:30;4.13;;;1.00;;
2388;SDS011;1205;47.984;7.668;2023-11-21T01:41:56;0.77;;;0.60;;
2388;SDS011;1205;47.984;7.668;2023-11-21T01:44:23;7.10;;;1.17;;
2388;SDS011;1205;47.984;7.668;2023-11-21T01:46:49;2.93;;;0.90;;
2388;SDS011;1205;47.984;7.668;2023-11-21T01:49:16;2.27;;;0.90;;
2388;SDS011;1205;47.984;7.668;2023-11-21T01:51:43;4.50;;;0.97;;
2388;SDS011;1205;47.984;7.668;2023-11-21T01:54:11;4.50;;;0.80;;
2388;SDS011;1205;47.984;7.668;2023-11-21T01:56:37;1.40;;;0.60;;
2388;SDS011;1205;47.984;7.668;2023-11-21T01:59:04;1.40;;;1.00;;
2388;SDS011;1205;47.984;7.668;2023-11-21T02:01:29;7.33;;;1.13;;
2388;SDS011;1205;47.984;7.668;2023-11-21T02:03:55;2.20;;;0.90;;
2388;SDS011;1205;47.984;7.668;2023-11-21T02:06:21;2.97;;;1.20;;
2388;SDS011;1205;47.984;7.668;2023-11-21T02:08:47;6.93;;;1.30;;
2388;SDS011;1205;47.984;7.668;2023-11-21T02:11:14;2.83;;;0.70;;
2388;SDS011;1205;47.984;7.668;2023-11-21T02:13:39;1.90;;;0.87;;
2388;SDS011;1205;47.984;7.668;2023-11-21T02:16:12;3.30;;;1.30;;
2388;SDS011;1205;47.984;7.668;2023-11-21T02:18:39;5.13;;;0.80;;
2388;SDS011;1205;47.984;7.668;2023-11-21T02:21:05;3.40;;;0.70;;
2388;SDS011;1205;47.984;7.668;2023-11-21T02:23:30;4.97;;;1.07;;
2388;SDS011;1205;47.984;7.668;2023-11-21T02:25:56;2.10;;;0.70;;
2388;SDS011;1205;47.984;7.668;2023-11-21T02:28:22;5.60;;;1.37;;
2388;SDS011;1205;47.984;7.668;2023-11-21T02:30:51;2.63;;;0.77;;
2388;SDS011;1205;47.984;7.668;2023-11-21T02:33:24;0.80;;;0.80;;
2388;SDS011;1205;47.984;7.668;2023-11-21T02:35:49;3.50;;;1.10;;
2388;SDS011;1205;47.984;7.668;2023-11-21T02:38:19;2.47;;;0.80;;
2388;SDS011;1205;47.984;7.668;2023-11-21T02:40:45;2.80;;;0.90;;
2388;SDS011;1205;47.984;7.668;2023-11-21T02:43:11;2.70;;;1.17;;
2388;SDS011;1205;47.984;7.668;2023-11-21T02:45:37;1.80;;;0.80;;
2388;SDS011;1205;47.984;7.668;2023-11-21T02:48:03;2.17;;;0.77;;
2388;SDS011;1205;47.984;7.668;2023-11-21T02:50:29;3.30;;;0.83;;
2388;SDS011;1205;47.984;7.668;2023-11-21T02:52:55;0.77;;;0.70;;
2388;SDS011;1205;47.984;7.668;2023-11-21T02:55:22;2.80;;;1.00;;
2388;SDS011;1205;47.984;7.668;2023-11-21T02:57:50;1.37;;;0.80;;
2388;SDS011;1205;47.984;7.668;2023-11-21T03:00:15;4.90;;;1.00;;
2388;SDS011;1205;47.984;7.668;2023-11-21T03:02:42;2.30;;;0.90;;
2388;SDS011;1205;47.984;7.668;2023-11-21T03:05:08;5.27;;;1.10;;
2388;SDS011;1205;47.984;7.668;2023-11-21T03:07:35;1.87;;;1.00;;
2388;SDS011;1205;47.984;7.668;2023-11-21T03:10:04;3.23;;;1.10;;
2388;SDS011;1205;47.984;7.668;2023-11-21T03:12:30;5.97;;;1.00;;
2388;SDS011;1205;47.984;7.668;2023-11-21T03:14:56;2.17;;;0.80;;
2388;SDS011;1205;47.984;7.668;2023-11-21T03:17:21;3.27;;;1.03;;
2388;SDS011;1205;47.984;7.668;2023-11-21T03:19:47;2.00;;;0.87;;
2388;SDS011;1205;47.984;7.668;2023-11-21T03:22:13;8.53;;;1.00;;
2388;SDS011;1205;47.984;7.668;2023-11-21T03:24:38;3.10;;;1.10;;
2388;SDS011;1205;47.984;7.668;2023-11-21T03:27:04;2.77;;;0.90;;
2388;SDS011;1205;47.984;7.668;2023-11-21T03:29:30;2.73;;;0.90;;
2388;SDS011;1205;47.984;7.668;2023-11-21T03:31:55;4.90;;;1.13;;
2388;SDS011;1205;47.984;7.668;2023-11-21T03:34:25;1.33;;;0.80;;
2388;SDS011;1205;47.984;7.668;2023-11-21T03:36:51;3.17;;;0.80;;
2388;SDS011;1205;47.984;7.668;2023-11-21T03:39:17;1.70;;;0.90;;
2388;SDS011;1205;47.984;7.668;2023-11-21T03:41:44;1.50;;;0.90;;
2388;SDS011;1205;47.984;7.668;2023-11-21T03:44:10;3.17;;;1.13;;
2388;SDS011;1205;47.984;7.668;2023-11-21T03:46:35;4.93;;;1.00;;
2388;SDS011;1205;47.984;7.668;2023-11-21T03:49:01;5.60;;;1.10;;
2388;SDS011;1205;47.984;7.668;2023-11-21T03:51:26;2.23;;;0.80;;
2388;SDS011;1205;47.984;7.668;2023-11-21T03:53:52;3.40;;;0.90;;
2388;SDS011;1205;47.984;7.668;2023-11-21T03:56:18;2.00;;;0.80;;
2388;SDS011;1205;47.984;7.668;2023-11-21T03:58:45;1.57;;;0.90;;
2388;SDS011;1205;47.984;7.668;2023-11-21T04:01:11;2.23;;;0.77;;
2388;SDS011;1205;47.984;7.668;2023-11-21T04:03:36;1.23;;;0.70;;
2388;SDS011;1205;47.984;7.668;2023-11-21T04:06:02;2.83;;;0.87;;
2388;SDS011;1205;47.984;7.668;2023-11-21T04:08:27;3.23;;;0.90;;
2388;SDS011;1205;47.984;7.668;2023-11-21T04:10:53;1.53;;;0.80;;
2388;SDS011;1205;47.984;7.668;2023-11-21T04:13:19;4.60;;;0.80;;
2388;SDS011;1205;47.984;7.668;2023-11-21T04:15:45;2.87;;;0.77;;
2388;SDS011;1205;47.984;7.668;2023-11-21T04:18:10;1.10;;;1.00;;
2388;SDS011;1205;47.984;7.668;2023-11-21T04:20:36;3.20;;;0.83;;
2388;SDS011;1205;47.984;7.668;2023-11-21T04:23:02;4.70;;;0.90;;
2388;SDS011;1205;47.984;7.668;2023-11-21T04:25:28;1.37;;;0.90;;
2388;SDS011;1205;47.984;7.668;2023-11-21T04:27:53;6.33;;;1.10;;
2388;SDS011;1205;47.984;7.668;2023-11-21T04:30:19;1.47;;;1.07;;
2388;SDS011;1205;47.984;7.668;2023-11-21T04:32:45;3.30;;;0.70;;
2388;SDS011;1205;47.984;7.668;2023-11-21T04:35:11;1.67;;;0.87;;
2388;SDS011;1205;47.984;7.668;2023-11-21T04:37:37;7.27;;;1.17;;
2388;SDS011;1205;47.984;7.668;2023-11-21T04:40:02;1.37;;;0.73;;
2388;SDS011;1205;47.984;7.668;2023-11-21T04:42:32;2.43;;;0.70;;
2388;SDS011;1205;47.984;7.668;2023-11-21T04:44:59;1.80;;;1.20;;
2388;SDS011;1205;47.984;7.668;2023-11-21T04:47:24;1.20;;;1.10;;
2388;SDS011;1205;47.984;7.668;2023-11-21T04:49:50;6.70;;;1.03;;
2388;SDS011;1205;47.984;7.668;2023-11-21T04:52:15;2.93;;;1.10;;
2388;SDS011;1205;47.984;7.668;2023-11-21T04:54:41;2.30;;;0.90;;
2388;SDS011;1205;47.984;7.668;2023-11-21T04:57:07;4.30;;;1.20;;
2388;SDS011;1205;47.984;7.668;2023-11-21T04:59:33;3.53;;;1.00;;
2388;SDS011;1205;47.984;7.668;2023-11-21T05:01:59;2.30;;;1.33;;
2388;SDS011;1205;47.984;7.668;2023-11-21T05:04:25;4.00;;;1.10;;
2388;SDS011;1205;47.984;7.668;2023-11-21T05:06:51;5.80;;;0.90;;
2388;SDS011;1205;47.984;7.668;2023-11-21T05:09:16;0.80;;;0.80;;
2388;SDS011;1205;47.984;7.668;2023-11-21T05:11:42;1.40;;;0.77;;
2388;SDS011;1205;47.984;7.668;2023-11-21T05:14:08;2.00;;;0.70;;
2388;SDS011;1205;47.984;7.668;2023-11-21T05:16:34;4.50;;;1.00;;
2388;SDS011;1205;47.984;7.668;2023-11-21T05:19:00;4.40;;;2.90;;
2388;SDS011;1205;47.984;7.668;2023-11-21T05:21:26;5.93;;;3.50;;
2388;SDS011;1205;47.984;7.668;2023-11-21T05:23:52;4.13;;;2.53;;
2388;SDS011;1205;47.984;7.668;2023-11-21T05:26:18;2.20;;;1.40;;
2388;SDS011;1205;47.984;7.668;2023-11-21T05:28:43;2.60;;;0.90;;
2388;SDS011;1205;47.984;7.668;2023-11-21T05:31:09;2.57;;;1.10;;
2388;SDS011;1205;47.984;7.668;2023-11-21T05:33:35;1.37;;;0.63;;
2388;SDS011;1205;47.984;7.668;2023-11-21T05:36:01;2.10;;;0.70;;
2388;SDS011;1205;47.984;7.668;2023-11-21T05:38:27;0.90;;;0.60;;
2388;SDS011;1205;47.984;7.668;2023-11-21T05:40:52;1.10;;;1.00;;
2388;SDS011;1205;47.984;7.668;2023-11-21T05:43:19;1.73;;;0.90;;
2388;SDS011;1205;47.984;7.668;2023-11-21T05:45:44;7.10;;;1.70;;
2388;SDS011;1205;47.984;7.668;2023-11-21T05:48:10;1.77;;;1.67;;
2388;SDS011;1205;47.984;7.668;2023-11-21T05:50:36;3.83;;;1.40;;
2388;SDS011;1205;47.984;7.668;2023-11-21T05:53:02;2.60;;;1.90;;
2388;SDS011;1205;47.984;7.668;2023-11-21T05:55:28;2.77;;;1.60;;
2388;SDS011;1205;47.984;7.668;2023-11-21T05:57:54;3.90;;;2.10;;
2388;SDS011;1205;47.984;7.668;2023-11-21T06:00:19;1.07;;;0.90;;
2388;SDS011;1205;47.984;7.668;2023-11-21T06:02:47;5.53;;;2.13;;
2388;SDS011;1205;47.984;7.668;2023-11-21T06:05:18;3.07;;;2.10;;
2388;SDS011;1205;47.984;7.668;2023-11-21T06:07:44;12.93;;;2.73;;
2388;SDS011;1205;47.984;7.668;2023-11-21T06:10:10;2.60;;;2.40;;
2388;SDS011;1205;47.984;7.668;2023-11-21T06:12:39;6.20;;;3.00;;
2388;SDS011;1205;47.984;7.668;2023-11-21T06:15:07;2.43;;;2.33;;
2388;SDS011;1205;47.984;7.668;2023-11-21T06:17:34;4.13;;;1.60;;
2388;SDS011;1205;47.984;7.668;2023-11-21T06:20:04;3.23;;;1.40;;
2388;SDS011;1205;47.984;7.668;2023-11-21T06:22:34;2.97;;;1.60;;
2388;SDS011;1205;47.984;7.668;2023-11-21T06:25:03;4.20;;;1.57;;
2388;SDS011;1205;47.984;7.668;2023-11-21T06:27:31;3.53;;;1.60;;
2388;SDS011;1205;47.984;7.668;2023-11-21T06:29:57;3.80;;;1.40;;
2388;SDS011;1205;47.984;7.668;2023-11-21T06:32:23;3.33;;;1.20;;
2388;SDS011;1205;47.984;7.668;2023-11-21T06:34:48;2.10;;;1.67;;
2388;SDS011;1205;47.984;7.668;2023-11-21T06:37:14;5.87;;;0.87;;
2388;SDS011;1205;47.984;7.668;2023-11-21T06:39:40;3.03;;;1.00;;
2388;SDS011;1205;47.984;7.668;2023-11-21T06:42:06;1.00;;;1.00;;
2388;SDS011;1205;47.984;7.668;2023-11-21T06:44:32;4.37;;;1.50;;
2388;SDS011;1205;47.984;7.668;2023-11-21T06:46:58;1.77;;;1.30;;
2388;SDS011;1205;47.984;7.668;2023-11-21T06:49:24;3.20;;;1.40;;
2388;SDS011;1205;47.984;7.668;2023-11-21T06:51:50;4.63;;;1.33;;
2388;SDS011;1205;47.984;7.668;2023-11-21T06:54:16;1.50;;;1.40;;
2388;SDS011;1205;47.984;7.668;2023-11-21T06:56:41;2.77;;;1.60;;
2388;SDS011;1205;47.984;7.668;2023-11-21T06:59:07;5.00;;;1.40;;
2388;SDS011;1205;47.984;7.668;2023-11-21T07:01:34;2.30;;;1.10;;
2388;SDS011;1205;47.984;7.668;2023-11-21T07:04:04;5.77;;;1.83;;
2388;SDS011;1205;47.984;7.668;2023-11-21T07:06:31;1.63;;;1.57;;
2388;SDS011;1205;47.984;7.668;2023-11-21T07:08:57;1.70;;;1.60;;
2388;SDS011;1205;47.984;7.668;2023-11-21T07:11:23;4.53;;;1.50;;
2388;SDS011;1205;47.984;7.668;2023-11-21T07:13:49;3.67;;;2.00;;
2388;SDS011;1205;47.984;7.668;2023-11-21T07:16:15;2.23;;;1.50;;
2388;SDS011;1205;47.984;7.668;2023-11-21T07:18:41;1.80;;;1.70;;
2388;SDS011;1205;47.984;7.668;2023-11-21T07:21:06;1.73;;;1.63;;
2388;SDS011;1205;47.984;7.668;2023-11-21T07:23:33;3.03;;;1.73;;
2388;SDS011;1205;47.984;7.668;2023-11-21T07:25:59;3.30;;;1.93;;
2388;SDS011;1205;47.984;7.668;2023-11-21T07:28:24;1.73;;;1.57;;
2388;SDS011;1205;47.984;7.668;2023-11-21T07:30:50;3.43;;;1.90;;
2388;SDS011;1205;47.984;7.668;2023-11-21T07:33:16;1.97;;;1.80;;
2388;SDS011;1205;47.984;7.668;2023-11-21T07:35:42;5.13;;;2.20;;
2388;SDS011;1205;47.984;7.668;2023-11-21T07:38:08;3.67;;;2.03;;
2388;SDS011;1205;47.984;7.668;2023-11-21T07:40:33;1.80;;;1.70;;
2388;SDS011;1205;47.984;7.668;2023-11-21T07:42:59;2.30;;;1.60;;
2388;SDS011;1205;47.984;7.668;2023-11-21T07:45:25;4.83;;;1.70;;
2388;SDS011;1205;47.984;7.668;2023-11-21T07:47:53;6.73;;;1.73;;
2388;SDS011;1205;47.984;7.668;2023-11-21T07:50:20;1.83;;;1.67;;
2388;SDS011;1205;47.984;7.668;2023-11-21T07:52:46;2.20;;;1.47;;
2388;SDS011;1205;47.984;7.668;2023-11-21T07:55:12;1.80;;;1.60;;
2388;SDS011;1205;47.984;7.668;2023-11-21T07:57:38;3.80;;;2.00;;
2388;SDS011;1205;47.984;7.668;2023-11-21T08:00:04;5.97;;;1.80;;
2388;SDS011;1205;47.984;7.668;2023-11-21T08:02:34;2.03;;;1.80;;
2388;SDS011;1205;47.984;7.668;2023-11-21T08:05:00;2.53;;;1.73;;
2388;SDS011;1205;47.984;7.668;2023-11-21T08:07:25;1.23;;;1.20;;
2388;SDS011;1205;47.984;7.668;2023-11-21T08:09:51;2.83;;;1.53;;
2388;SDS011;1205;47.984;7.668;2023-11-21T08:12:17;1.77;;;1.47;;
2388;SDS011;1205;47.984;7.668;2023-11-21T08:14:45;3.13;;;1.40;;
2388;SDS011;1205;47.984;7.668;2023-11-21T08:17:11;1.90;;;1.23;;
2388;SDS011;1205;47.984;7.668;2023-11-21T08:19:36;3.57;;;1.83;;
2388;SDS011;1205;47.984;7.668;2023-11-21T08:22:02;3.63;;;1.83;;
2388;SDS011;1205;47.984;7.668;2023-11-21T08:24:28;1.97;;;1.60;;
2388;SDS011;1205;47.984;7.668;2023-11-21T08:26:54;1.93;;;1.83;;
2388;SDS011;1205;47.984;7.668;2023-11-21T08:29:20;4.83;;;1.50;;
2388;SDS011;1205;47.984;7.668;2023-11-21T08:31:45;1.60;;;1.50;;
2388;SDS011;1205;47.984;7.668;2023-11-21T08:34:14;2.10;;;1.40;;
2388;SDS011;1205;47.984;7.668;2023-11-21T08:36:43;5.37;;;1.37;;
2388;SDS011;1205;47.984;7.668;2023-11-21T08:39:10;2.23;;;1.90;;
2388;SDS011;1205;47.984;7.668;2023-11-21T08:41:36;1.73;;;1.63;;
2388;SDS011;1205;47.984;7.668;2023-11-21T08:44:02;1.97;;;1.70;;
2388;SDS011;1205;47.984;7.668;2023-11-21T08:46:32;4.23;;;1.53;;
2388;SDS011;1205;47.984;7.668;2023-11-21T08:48:58;4.07;;;1.47;;
2388;SDS011;1205;47.984;7.668;2023-11-21T08:51:26;3.20;;;1.40;;
2388;SDS011;1205;47.984;7.668;2023-11-21T08:53:51;7.20;;;1.70;;
2388;SDS011;1205;47.984;7.668;2023-11-21T08:56:18;22.27;;;3.13;;
2388;SDS011;1205;47.984;7.668;2023-11-21T08:58:45;5.23;;;1.57;;
2388;SDS011;1205;47.984;7.668;2023-11-21T09:01:12;3.30;;;1.33;;
2388;SDS011;1205;47.984;7.668;2023-11-21T09:03:38;2.23;;;1.30;;
2388;SDS011;1205;47.984;7.668;2023-11-21T09:06:03;1.60;;;1.50;;
2388;SDS011;1205;47.984;7.668;2023-11-21T09:08:29;4.63;;;1.73;;
2388;SDS011;1205;47.984;7.668;2023-11-21T09:10:55;5.50;;;2.10;;
2388;SDS011;1205;47.984;7.668;2023-11-21T09:13:20;4.37;;;1.77;;
2388;SDS011;1205;47.984;7.668;2023-11-21T09:15:46;2.20;;;1.37;;
2388;SDS011;1205;47.984;7.668;2023-11-21T09:18:15;4.20;;;1.50;;
2388;SDS011;1205;47.984;7.668;2023-11-21T09:20:41;5.40;;;1.53;;
2388;SDS011;1205;47.984;7.668;2023-11-21T09:23:09;3.80;;;1.60;;
2388;SDS011;1205;47.984;7.668;2023-11-21T09:25:34;3.47;;;1.30;;
2388;SDS011;1205;47.984;7.668;2023-11-21T09:28:01;5.60;;;1.47;;
2388;SDS011;1205;47.984;7.668;2023-11-21T09:30:30;1.90;;;1.30;;
2388;SDS011;1205;47.984;7.668;2023-11-21T09:32:55;2.30;;;1.77;;
2388;SDS011;1205;47.984;7.668;2023-11-21T09:35:22;4.57;;;2.10;;
2388;SDS011;1205;47.984;7.668;2023-11-21T09:37:49;1.73;;;1.63;;
2388;SDS011;1205;47.984;7.668;2023-11-21T09:40:15;2.70;;;1.70;;
2388;SDS011;1205;47.984;7.668;2023-11-21T09:45:28;1.57;;;1.47;;
2388;SDS011;1205;47.984;7.668;2023-11-21T09:47:59;1.40;;;1.30;;
2388;SDS011;1205;47.984;7.668;2023-11-21T09:50:25;7.93;;;1.80;;
2388;SDS011;1205;47.984;7.668;2023-11-21T09:55:22;1.20;;;1.10;;
2388;SDS011;1205;47.984;7.668;2023-11-21T09:57:51;20.50;;;2.20;;
2388;SDS011;1205;47.984;7.668;2023-11-21T10:00:19;5.47;;;2.03;;
2388;SDS011;1205;47.984;7.668;2023-11-21T10:02:48;1.97;;;1.87;;
2388;SDS011;1205;47.984;7.668;2023-11-21T10:05:15;1.60;;;1.50;;
2388;SDS011;1205;47.984;7.668;2023-11-21T10:07:43;2.20;;;2.00;;
2388;SDS011;1205;47.984;7.668;2023-11-21T10:10:10;1.63;;;1.60;;
2388;SDS011;1205;47.984;7.668;2023-11-21T10:12:36;4.47;;;1.70;;
2388;SDS011;1205;47.984;7.668;2023-11-21T10:15:03;1.70;;;1.60;;
2388;SDS011;1205;47.984;7.668;2023-11-21T10:17:33;1.60;;;1.40;;
2388;SDS011;1205;47.984;7.668;2023-11-21T10:20:03;4.37;;;1.47;;
2388;SDS011;1205;47.984;7.668;2023-11-21T10:22:36;2.43;;;1.53;;
2388;SDS011;1205;47.984;7.668;2023-11-21T10:25:06;1.83;;;1.73;;
2388;SDS011;1205;47.984;7.668;2023-11-21T10:27:33;4.60;;;1.57;;
2388;SDS011;1205;47.984;7.668;2023-11-21T10:30:04;3.03;;;1.70;;
2388;SDS011;1205;47.984;7.668;2023-11-21T10:32:30;1.57;;;1.40;;
2388;SDS011;1205;47.984;7.668;2023-11-21T10:34:59;1.90;;;1.80;;
2388;SDS011;1205;47.984;7.668;2023-11-21T10:37:25;1.83;;;1.73;;
2388;SDS011;1205;47.984;7.668;2023-11-21T10:39:56;1.73;;;1.63;;
2388;SDS011;1205;47.984;7.668;2023-11-21T10:42:23;3.73;;;2.10;;
2388;SDS011;1205;47.984;7.668;2023-11-21T10:44:49;6.90;;;2.20;;
2388;SDS011;1205;47.984;7.668;2023-11-21T10:47:16;1.80;;;1.67;;
2388;SDS011;1205;47.984;7.668;2023-11-21T10:49:44;3.93;;;2.30;;
2388;SDS011;1205;47.984;7.668;2023-11-21T10:52:12;1.60;;;1.60;;
2388;SDS011;1205;47.984;7.668;2023-11-21T10:54:42;2.17;;;1.77;;
2388;SDS011;1205;47.984;7.668;2023-11-21T10:57:08;4.80;;;1.90;;
2388;SDS011;1205;47.984;7.668;2023-11-21T10:59:36;2.43;;;1.00;;
2388;SDS011;1205;47.984;7.668;2023-11-21T11:02:09;4.20;;;1.00;;
2388;SDS011;1205;47.984;7.668;2023-11-21T11:04:47;2.30;;;0.93;;
2388;SDS011;1205;47.984;7.668;2023-11-21T11:07:13;0.60;;;0.60;;
2388;SDS011;1205;47.984;7.668;2023-11-21T11:09:41;0.87;;;0.87;;
2388;SDS011;1205;47.984;7.668;2023-11-21T11:12:07;2.30;;;0.60;;
2388;SDS011;1205;47.984;7.668;2023-11-21T11:14:34;0.70;;;0.60;;
2388;SDS011;1205;47.984;7.668;2023-11-21T11:17:01;0.63;;;0.63;;
2388;SDS011;1205;47.984;7.668;2023-11-21T11:19:28;1.23;;;0.70;;
2388;SDS011;1205;47.984;7.668;2023-11-21T11:25:06;0.87;;;0.87;;
2388;SDS011;1205;47.984;7.668;2023-11-21T11:30:28;0.70;;;0.70;;
2388;SDS011;1205;47.984;7.668;2023-11-21T11:38:32;0.80;;;0.80;;
2388;SDS011;1205;47.984;7.668;2023-11-21T11:41:01;3.90;;;0.90;;
2388;SDS011;1205;47.984;7.668;2023-11-21T11:43:29;2.33;;;1.00;;
2388;SDS011;1205;47.984;7.668;2023-11-21T11:45:58;3.23;;;0.90;;
2388;SDS011;1205;47.984;7.668;2023-11-21T11:48:24;1.33;;;0.90;;
2388;SDS011;1205;47.984;7.668;2023-11-21T11:51:02;2.40;;;0.70;;
2388;SDS011;1205;47.984;7.668;2023-11-21T11:53:37;3.63;;;0.80;;
2388;SDS011;1205;47.984;7.668;2023-11-21T11:56:24;1.57;;;1.47;;
2388;SDS011;1205;47.984;7.668;2023-11-21T11:58:52;1.80;;;1.50;;
2388;SDS011;1205;47.984;7.668;2023-11-21T12:01:20;1.07;;;0.90;;
2388;SDS011;1205;47.984;7.668;2023-11-21T12:06:42;0.70;;;0.70;;
2388;SDS011;1205;47.984;7.668;2023-11-21T12:09:17;1.07;;;0.97;;
2388;SDS011;1205;47.984;7.668;2023-11-21T12:11:43;0.73;;;0.73;;
2388;SDS011;1205;47.984;7.668;2023-11-21T12:14:10;1.13;;;1.13;;
2388;SDS011;1205;47.984;7.668;2023-11-21T12:16:35;1.43;;;0.80;;
2388;SDS011;1205;47.984;7.668;2023-11-21T12:19:02;1.17;;;0.70;;
2388;SDS011;1205;47.984;7.668;2023-11-21T12:21:28;1.40;;;1.27;;
2388;SDS011;1205;47.984;7.668;2023-11-21T12:23:55;0.97;;;0.83;;
2388;SDS011;1205;47.984;7.668;2023-11-21T12:26:22;0.93;;;0.70;;
2388;SDS011;1205;47.984;7.668;2023-11-21T12:28:52;1.40;;;1.30;;
2388;SDS011;1205;47.984;7.668;2023-11-21T12:31:20;1.43;;;1.43;;
2388;SDS011;1205;47.984;7.668;2023-11-21T12:33:49;0.70;;;0.70;;
2388;SDS011;1205;47.984;7.668;2023-11-21T12:36:15;1.00;;;0.80;;
2388;SDS011;1205;47.984;7.668;2023-11-21T12:38:42;0.70;;;0.70;;
2388;SDS011;1205;47.984;7.668;2023-11-21T12:41:08;2.23;;;0.87;;
2388;SDS011;1205;47.984;7.668;2023-11-21T12:43:35;0.77;;;0.77;;
2388;SDS011;1205;47.984;7.668;2023-11-21T12:46:07;1.00;;;1.00;;
2388;SDS011;1205;47.984;7.668;2023-11-21T12:48:37;0.90;;;0.80;;
2388;SDS011;1205;47.984;7.668;2023-11-21T12:51:07;0.80;;;0.80;;
2388;SDS011;1205;47.984;7.668;2023-11-21T12:53:34;2.13;;;1.30;;
2388;SDS011;1205;47.984;7.668;2023-11-21T12:56:06;2.50;;;1.30;;
2388;SDS011;1205;47.984;7.668;2023-11-21T12:58:34;0.80;;;0.80;;
2388;SDS011;1205;47.984;7.668;2023-11-21T13:01:01;1.00;;;1.00;;
2388;SDS011;1205;47.984;7.668;2023-11-21T13:03:30;0.83;;;0.83;;
2388;SDS011;1205;47.984;7.668;2023-11-21T13:05:55;1.20;;;1.10;;
2388;SDS011;1205;47.984;7.668;2023-11-21T13:08:24;0.80;;;0.80;;
2388;SDS011;1205;47.984;7.668;2023-11-21T13:10:52;0.80;;;0.80;;
2388;SDS011;1205;47.984;7.668;2023-11-21T13:13:20;2.40;;;1.27;;
2388;SDS011;1205;47.984;7.668;2023-11-21T13:15:59;0.80;;;0.80;;
2388;SDS011;1205;47.984;7.668;2023-11-21T13:18:26;0.80;;;0.80;;
2388;SDS011;1205;47.984;7.668;2023-11-21T13:20:56;0.90;;;0.90;;
2388;SDS011;1205;47.984;7.668;2023-11-21T13:23:24;1.10;;;1.10;;
2388;SDS011;1205;47.984;7.668;2023-11-21T13:25:50;1.60;;;1.37;;
2388;SDS011;1205;47.984;7.668;2023-11-21T13:28:17;1.00;;;1.00;;
2388;SDS011;1205;47.984;7.668;2023-11-21T13:30:45;0.70;;;0.70;;
2388;SDS011;1205;47.984;7.668;2023-11-21T13:33:13;0.60;;;0.60;;
2388;SDS011;1205;47.984;7.668;2023-11-21T13:35:42;2.00;;;0.70;;
2388;SDS011;1205;47.984;7.668;2023-11-21T13:38:15;2.23;;;1.93;;
2388;SDS011;1205;47.984;7.668;2023-11-21T13:40:46;1.13;;;1.00;;
2388;SDS011;1205;47.984;7.668;2023-11-21T13:43:14;1.07;;;1.07;;
2388;SDS011;1205;47.984;7.668;2023-11-21T13:45:41;20.57;;;8.33;;
2388;SDS011;1205;47.984;7.668;2023-11-21T13:48:08;74.77;;;25.73;;
2388;SDS011;1205;47.984;7.668;2023-11-21T13:50:39;35.43;;;12.43;;
2388;SDS011;1205;47.984;7.668;2023-11-21T13:53:13;28.17;;;11.10;;
2388;SDS011;1205;47.984;7.668;2023-11-21T13:55:50;46.47;;;22.60;;
2388;SDS011;1205;47.984;7.668;2023-11-21T13:58:19;8.63;;;5.53;;
2388;SDS011;1205;47.984;7.668;2023-11-21T14:00:49;3.10;;;2.30;;
2388;SDS011;1205;47.984;7.668;2023-11-21T14:03:24;3.90;;;3.60;;
2388;SDS011;1205;47.984;7.668;2023-11-21T14:05:57;3.03;;;2.30;;
2388;SDS011;1205;47.984;7.668;2023-11-21T14:08:25;2.90;;;2.27;;
2388;SDS011;1205;47.984;7.668;2023-11-21T14:10:54;3.40;;;3.20;;
2388;SDS011;1205;47.984;7.668;2023-11-21T14:13:24;3.13;;;2.93;;
2388;SDS011;1205;47.984;7.668;2023-11-21T14:15:51;7.60;;;5.13;;
2388;SDS011;1205;47.984;7.668;2023-11-21T14:18:23;3.87;;;3.57;;
2388;SDS011;1205;47.984;7.668;2023-11-21T14:20:55;3.50;;;3.00;;
2388;SDS011;1205;47.984;7.668;2023-11-21T14:23:21;2.70;;;1.77;;
2388;SDS011;1205;47.984;7.668;2023-11-21T14:25:48;2.90;;;2.70;;
2388;SDS011;1205;47.984;7.668;2023-11-21T14:28:14;1.53;;;1.43;;
2388;SDS011;1205;47.984;7.668;2023-11-21T14:30:40;1.73;;;1.67;;
2388;SDS011;1205;47.984;7.668;2023-11-21T14:33:07;1.47;;;1.47;;
2388;SDS011;1205;47.984;7.668;2023-11-21T14:35:35;1.70;;;1.70;;
2388;SDS011;1205;47.984;7.668;2023-11-21T14:38:01;2.13;;;2.00;;
2388;SDS011;1205;47.984;7.668;2023-11-21T14:40:29;2.10;;;1.90;;
2388;SDS011;1205;47.984;7.668;2023-11-21T14:43:02;1.60;;;1.50;;
2388;SDS011;1205;47.984;7.668;2023-11-21T14:45:31;2.00;;;1.97;;
2388;SDS011;1205;47.984;7.668;2023-11-21T14:47:57;2.20;;;1.90;;
2388;SDS011;1205;47.984;7.668;2023-11-21T14:50:32;1.50;;;1.40;;
2388;SDS011;1205;47.984;7.668;2023-11-21T14:53:08;2.70;;;2.47;;
2388;SDS011;1205;47.984;7.668;2023-11-21T14:55:38;2.17;;;2.07;;
2388;SDS011;1205;47.984;7.668;2023-11-21T14:58:17;2.20;;;2.10;;
2388;SDS011;1205;47.984;7.668;2023-11-21T15:00:55;15.53;;;8.83;;
2388;SDS011;1205;47.984;7.668;2023-11-21T15:03:23;3.83;;;3.50;;
2388;SDS011;1205;47.984;7.668;2023-11-21T15:05:59;25.43;;;13.33;;
2388;SDS011;1205;47.984;7.668;2023-11-21T15:08:49;23.03;;;13.93;;
2388;SDS011;1205;47.984;7.668;2023-11-21T15:11:25;18.80;;;11.50;;
2388;SDS011;1205;47.984;7.668;2023-11-21T15:13:55;7.93;;;5.63;;
2388;SDS011;1205;47.984;7.668;2023-11-21T15:16:22;7.70;;;5.53;;
2388;SDS011;1205;47.984;7.668;2023-11-21T15:18:47;4.97;;;3.30;;
2388;SDS011;1205;47.984;7.668;2023-11-21T15:21:13;9.70;;;3.00;;
2388;SDS011;1205;47.984;7.668;2023-11-21T15:23:38;1.97;;;1.87;;
2388;SDS011;1205;47.984;7.668;2023-11-21T15:26:05;1.60;;;1.60;;
2388;SDS011;1205;47.984;7.668;2023-11-21T15:28:33;7.33;;;1.67;;
2388;SDS011;1205;47.984;7.668;2023-11-21T15:30:59;1.47;;;1.40;;
2388;SDS011;1205;47.984;7.668;2023-11-21T15:33:24;1.43;;;1.30;;
2388;SDS011;1205;47.984;7.668;2023-11-21T15:35:52;1.57;;;1.57;;